createdAt,value
2019-05-25T00:00:46.618Z,96763.93
2019-05-25T00:02:22.827Z,96766.47
2019-05-25T00:03:58.105Z,96767.83
2019-05-25T00:05:35.246Z,96761.44
2019-05-25T00:07:10.765Z,96765.33
2019-05-25T00:08:48.230Z,96760.15
2019-05-25T00:10:26.316Z,96764.08
2019-05-25T00:12:02.410Z,96763.11
2019-05-25T00:13:38.164Z,96767.36
2019-05-25T00:15:17.481Z,96762.95
2019-05-25T00:16:54.927Z,96762.02
2019-05-25T00:18:31.536Z,96759.76
2019-05-25T00:20:09.307Z,96754.89
2019-05-25T00:21:45.248Z,96763.39
2019-05-25T00:23:22.823Z,96759.11
2019-05-25T00:25:01.313Z,96752.23
2019-05-25T00:26:38.576Z,96757.22
2019-05-25T00:28:17.418Z,96757.80
2019-05-25T00:29:52.763Z,96754.09
2019-05-25T00:31:29.137Z,96755.13
2019-05-25T00:33:04.778Z,96760.98
2019-05-25T00:34:40.582Z,96757.58
2019-05-25T00:36:16.424Z,96758.42
2019-05-25T00:37:52.122Z,96759.25
2019-05-25T00:39:27.569Z,96755.73
2019-05-25T00:41:03.710Z,96742.02
2019-05-25T00:42:39.388Z,96751.06
2019-05-25T00:44:19.529Z,96750.41
2019-05-25T00:45:55.788Z,96742.30
2019-05-25T00:47:31.888Z,96736.84
2019-05-25T00:49:08.959Z,96741.42
2019-05-25T00:50:46.995Z,96744.82
2019-05-25T00:52:23.285Z,96745.82
2019-05-25T00:53:59.247Z,96738.01
2019-05-25T00:55:34.746Z,96737.95
2019-05-25T00:57:37.571Z,96743.53
2019-05-25T00:59:14.306Z,96743.91
2019-05-25T01:00:53.307Z,96743.70
2019-05-25T01:02:29.174Z,96741.64
2019-05-25T01:04:04.367Z,96746.86
2019-05-25T01:05:45.250Z,96745.40
2019-05-25T01:07:22.691Z,96749.06
2019-05-25T01:08:59.039Z,96744.97
2019-05-25T01:10:37.383Z,96757.00
2019-05-25T01:12:12.456Z,96756.47
2019-05-25T01:13:48.111Z,96746.93
2019-05-25T01:15:23.857Z,96753.51
2019-05-25T01:16:59.918Z,96745.33
2019-05-25T01:18:35.067Z,96752.48
2019-05-25T01:20:14.670Z,96754.61
2019-05-25T01:21:49.838Z,96747.80
2019-05-25T01:23:25.535Z,96753.41
2019-05-25T01:25:00.991Z,96758.80
2019-05-25T01:26:39.491Z,96762.29
2019-05-25T01:28:15.271Z,96768.04
2019-05-25T01:29:54.422Z,96766.61
2019-05-25T01:31:29.721Z,96763.80
2019-05-25T01:33:06.169Z,96771.68
2019-05-25T01:34:42.106Z,96768.71
2019-05-25T01:36:17.994Z,96764.38
2019-05-25T01:37:53.601Z,96764.98
2019-05-25T01:39:30.013Z,96762.73
2019-05-25T01:41:07.550Z,96772.69
2019-05-25T01:42:45.390Z,96765.27
2019-05-25T01:44:21.104Z,96771.80
2019-05-25T01:45:56.914Z,96766.34
2019-05-25T01:47:32.402Z,96763.23
2019-05-25T01:49:08.308Z,96761.46
2019-05-25T01:50:49.178Z,96759.07
2019-05-25T01:52:25.289Z,96762.78
2019-05-25T01:54:00.425Z,96760.36
2019-05-25T01:55:36.782Z,96750.70
2019-05-25T01:57:11.957Z,96751.49
2019-05-25T01:58:47.810Z,96743.84
2019-05-25T02:00:23.102Z,96743.33
2019-05-25T02:01:58.851Z,96743.70
2019-05-25T02:03:34.547Z,96744.64
2019-05-25T02:05:10.722Z,96741.94
2019-05-25T02:06:45.945Z,96739.98
2019-05-25T02:08:22.656Z,96712.45
2019-05-25T02:09:57.733Z,96707.28
2019-05-25T02:11:33.947Z,96708.47
2019-05-25T02:13:09.086Z,96708.23
2019-05-25T02:14:44.999Z,96708.05
2019-05-25T02:16:20.144Z,96708.23
2019-05-25T02:17:55.886Z,96709.16
2019-05-25T02:19:32.552Z,96708.33
2019-05-25T02:21:08.644Z,96705.52
2019-05-25T02:22:43.874Z,96710.53
2019-05-25T02:25:24.037Z,96714.02
2019-05-25T02:27:00.213Z,96716.39
2019-05-25T02:28:38.245Z,96722.94
2019-05-25T02:30:22.759Z,96715.28
2019-05-25T02:31:58.925Z,96719.70
2019-05-25T02:33:37.080Z,96717.86
2019-05-25T02:35:19.998Z,96722.95
2019-05-25T02:36:56.170Z,96720.12
2019-05-25T02:38:32.907Z,96728.22
2019-05-25T02:40:09.126Z,96726.09
2019-05-25T02:41:44.265Z,96731.42
2019-05-25T02:43:20.829Z,96736.34
2019-05-25T02:44:56.097Z,96734.70
2019-05-25T02:46:32.458Z,96733.10
2019-05-25T02:48:07.968Z,96736.86
2019-05-25T02:49:43.854Z,96735.33
2019-05-25T02:51:19.111Z,96738.98
2019-05-25T02:52:54.789Z,96733.88
2019-05-25T02:54:29.990Z,96736.30
2019-05-25T02:56:06.156Z,96740.62
2019-05-25T02:57:41.317Z,96740.78
2019-05-25T02:59:17.336Z,96749.42
2019-05-25T03:00:52.429Z,96745.52
2019-05-25T03:02:28.758Z,96749.97
2019-05-25T03:04:04.239Z,96751.39
2019-05-25T03:05:42.615Z,96752.44
2019-05-25T03:07:18.428Z,96763.80
2019-05-25T03:08:56.934Z,96775.60
2019-05-25T03:10:32.582Z,96776.41
2019-05-25T03:12:08.634Z,96778.28
2019-05-25T03:13:47.105Z,96787.42
2019-05-25T03:15:25.456Z,96789.05
2019-05-25T03:17:01.107Z,96797.20
2019-05-25T03:18:36.643Z,96802.98
2019-05-25T03:20:13.404Z,96803.72
2019-05-25T03:21:48.579Z,96808.15
2019-05-25T03:23:24.325Z,96816.03
2019-05-25T03:24:59.478Z,96822.73
2019-05-25T03:26:37.186Z,96822.08
2019-05-25T03:28:13.209Z,96823.27
2019-05-25T03:29:51.991Z,96836.84
2019-05-25T03:31:27.089Z,96846.25
2019-05-25T03:33:02.825Z,96851.73
2019-05-25T03:34:37.927Z,96856.80
2019-05-25T03:36:13.661Z,96865.54
2019-05-25T03:37:48.844Z,96866.61
2019-05-25T03:39:24.521Z,96876.98
2019-05-25T03:40:59.732Z,96876.10
2019-05-25T03:42:35.805Z,96878.92
2019-05-25T03:44:11.527Z,96888.09
2019-05-25T03:45:47.440Z,96892.38
2019-05-25T03:47:22.679Z,96898.34
2019-05-25T03:48:58.497Z,96919.31
2019-05-25T03:50:33.959Z,96924.66
2019-05-25T03:52:09.669Z,96925.78
2019-05-25T03:53:44.973Z,96935.27
2019-05-25T03:55:20.596Z,96940.47
2019-05-25T03:56:56.179Z,96940.38
2019-05-25T03:58:32.952Z,96945.77
2019-05-25T04:00:14.774Z,96942.45
2019-05-25T04:01:49.094Z,96949.19
2019-05-25T04:03:24.205Z,96946.24
2019-05-25T04:05:03.219Z,96944.29
2019-05-25T04:06:41.386Z,96944.73
2019-05-25T04:08:17.516Z,96947.34
2019-05-25T04:09:52.911Z,96945.22
2019-05-25T04:11:31.452Z,96948.02
2019-05-25T04:13:07.190Z,96947.38
2019-05-25T04:14:42.942Z,96951.63
2019-05-25T04:16:19.132Z,96946.13
2019-05-25T04:17:55.168Z,96945.03
2019-05-25T04:19:30.329Z,96945.74
2019-05-25T04:21:06.307Z,96941.84
2019-05-25T04:22:41.530Z,96944.23
2019-05-25T04:24:19.179Z,96946.29
2019-05-25T04:26:01.275Z,96944.28
2019-05-25T04:27:32.607Z,96948.27
2019-05-25T04:29:08.295Z,96945.66
2019-05-25T04:30:44.111Z,96952.72
2019-05-25T04:32:19.403Z,96952.05
2019-05-25T04:33:55.013Z,96949.92
2019-05-25T04:35:30.636Z,96961.75
2019-05-25T04:37:06.293Z,96960.41
2019-05-25T04:38:41.744Z,96959.57
2019-05-25T04:40:17.603Z,96967.32
2019-05-25T04:41:54.423Z,96967.84
2019-05-25T04:43:33.335Z,96971.86
2019-05-25T04:45:08.850Z,96969.46
2019-05-25T04:46:51.967Z,96975.19
2019-05-25T04:48:28.953Z,96971.10
2019-05-25T04:50:10.817Z,96978.34
2019-05-25T04:52:09.291Z,96980.56
2019-05-25T04:53:24.826Z,96975.30
2019-05-25T04:54:59.861Z,96971.45
2019-05-25T04:56:39.671Z,96981.34
2019-05-25T04:58:12.331Z,96978.30
2019-05-25T04:59:53.459Z,96976.17
2019-05-25T05:01:28.744Z,96982.41
2019-05-25T05:03:05.235Z,96977.90
2019-05-25T05:04:40.672Z,96974.31
2019-05-25T05:06:16.551Z,96972.54
2019-05-25T05:07:53.215Z,96969.70
2019-05-25T05:09:28.816Z,96968.13
2019-05-25T05:11:03.964Z,96965.75
2019-05-25T05:12:40.026Z,96960.72
2019-05-25T05:14:15.509Z,96963.36
2019-05-25T05:15:51.192Z,96951.81
2019-05-25T05:17:27.003Z,96954.84
2019-05-25T05:19:02.620Z,96945.37
2019-05-25T05:20:38.044Z,96938.30
2019-05-25T05:22:14.125Z,96934.11
2019-05-25T05:23:49.705Z,96929.67
2019-05-25T05:25:25.745Z,96927.12
2019-05-25T05:27:00.941Z,96918.22
2019-05-25T05:28:38.159Z,96924.88
2019-05-25T05:30:17.047Z,96910.98
2019-05-25T05:31:55.215Z,96906.94
2019-05-25T05:33:30.404Z,96901.23
2019-05-25T05:35:07.164Z,96891.61
2019-05-25T05:36:43.195Z,96883.05
2019-05-25T05:38:19.246Z,96877.53
2019-05-25T05:39:55.155Z,96867.43
2019-05-25T05:41:31.353Z,96868.16
2019-05-25T05:43:10.400Z,96867.34
2019-05-25T05:44:46.148Z,96868.79
2019-05-25T05:46:21.788Z,96868.96
2019-05-25T05:47:57.658Z,96868.32
2019-05-25T05:49:32.734Z,96871.05
2019-05-25T05:51:08.785Z,96866.34
2019-05-25T05:52:44.326Z,96864.97
2019-05-25T05:54:21.643Z,96872.81
2019-05-25T05:55:57.025Z,96867.80
2019-05-25T05:57:34.227Z,96869.77
2019-05-25T05:59:09.834Z,96861.48
2019-05-25T06:00:45.478Z,96862.53
2019-05-25T06:02:22.256Z,96854.94
2019-05-25T06:04:02.023Z,96854.24
2019-05-25T06:05:37.854Z,96853.39
2019-05-25T06:07:13.623Z,96855.03
2019-05-25T06:08:48.826Z,96852.02
2019-05-25T06:10:24.916Z,96857.96
2019-05-25T06:12:00.467Z,96850.03
2019-05-25T06:13:37.056Z,96855.07
2019-05-25T06:15:14.587Z,96852.49
2019-05-25T06:16:50.556Z,96849.41
2019-05-25T06:18:26.182Z,96848.77
2019-05-25T06:20:02.913Z,96845.91
2019-05-25T06:21:41.155Z,96836.11
2019-05-25T06:23:17.605Z,96840.92
2019-05-25T06:24:54.361Z,96839.36
2019-05-25T06:26:34.049Z,96845.59
2019-05-25T06:28:09.405Z,96841.62
2019-05-25T06:29:45.864Z,96846.30
2019-05-25T06:31:23.109Z,96850.00
2019-05-25T06:33:01.838Z,96842.09
2019-05-25T06:34:42.180Z,96841.75
2019-05-25T06:36:21.845Z,96842.72
2019-05-25T06:37:57.292Z,96846.72
2019-05-25T06:39:33.430Z,96842.66
2019-05-25T06:41:09.353Z,96848.21
2019-05-25T06:42:46.072Z,96848.67
2019-05-25T06:44:22.889Z,96852.25
2019-05-25T06:46:01.799Z,96847.58
2019-05-25T06:47:40.549Z,96849.58
2019-05-25T06:49:27.029Z,96852.48
2019-05-25T06:50:55.611Z,96852.03
2019-05-25T06:52:36.268Z,96853.41
2019-05-25T06:54:13.354Z,96857.66
2019-05-25T06:55:50.123Z,96851.97
2019-05-25T06:57:40.321Z,96852.73
2019-05-25T06:59:07.192Z,96857.16
2019-05-25T07:00:46.146Z,96858.08
2019-05-25T07:02:22.755Z,96862.38
2019-05-25T07:04:03.105Z,96860.10
2019-05-25T07:05:39.147Z,96863.76
2019-05-25T07:07:15.233Z,96867.09
2019-05-25T07:08:51.041Z,96862.55
2019-05-25T07:10:27.173Z,96857.30
2019-05-25T07:12:03.619Z,96867.69
2019-05-25T07:13:41.310Z,96872.23
2019-05-25T07:15:20.877Z,96869.95
2019-05-25T07:17:00.147Z,96871.01
2019-05-25T07:18:37.338Z,96865.23
2019-05-25T07:20:17.131Z,96871.88
2019-05-25T07:21:55.076Z,96869.28
2019-05-25T07:23:34.380Z,96876.47
2019-05-25T07:25:09.467Z,96866.47
2019-05-25T07:26:46.138Z,96875.16
2019-05-25T07:28:21.682Z,96876.42
2019-05-25T07:30:00.282Z,96874.59
2019-05-25T07:31:35.402Z,96870.91
2019-05-25T07:33:11.144Z,96870.71
2019-05-25T07:34:51.972Z,96868.70
2019-05-25T07:36:27.991Z,96871.36
2019-05-25T07:38:06.990Z,96869.33
2019-05-25T07:39:44.249Z,96867.95
2019-05-25T07:41:19.361Z,96866.95
2019-05-25T07:42:58.007Z,96872.12
2019-05-25T07:44:37.540Z,96867.70
2019-05-25T07:46:16.973Z,96869.55
2019-05-25T07:47:50.345Z,96868.11
2019-05-25T07:49:26.925Z,96867.97
2019-05-25T07:51:47.556Z,96869.83
2019-05-25T07:53:58.887Z,96879.45
2019-05-25T07:55:35.740Z,96873.20
2019-05-25T07:57:12.427Z,96862.52
2019-05-25T07:58:51.389Z,96865.61
2019-05-25T08:00:27.796Z,96869.73
2019-05-25T08:02:07.856Z,96874.88
2019-05-25T08:03:46.102Z,96872.68
2019-05-25T08:05:24.657Z,96876.89
2019-05-25T08:07:00.889Z,96874.07
2019-05-25T08:08:40.495Z,96879.31
2019-05-25T08:10:17.691Z,96878.42
2019-05-25T08:11:53.349Z,96873.27
2019-05-25T08:13:34.522Z,96871.70
2019-05-25T08:15:15.236Z,96874.67
2019-05-25T08:16:53.106Z,96877.02
2019-05-25T08:18:28.854Z,96879.11
2019-05-25T08:20:07.120Z,96886.89
2019-05-25T08:21:42.292Z,96875.31
2019-05-25T08:23:21.660Z,96869.88
2019-05-25T08:25:03.302Z,96881.16
2019-05-25T08:26:42.507Z,96885.36
2019-05-25T08:28:32.204Z,96884.24
2019-05-25T08:29:57.814Z,96883.64
2019-05-25T08:31:34.525Z,96882.67
2019-05-25T08:33:10.864Z,96879.30
2019-05-25T08:34:46.837Z,96883.23
2019-05-25T08:36:22.337Z,96880.45
2019-05-25T08:38:01.556Z,96874.78
2019-05-25T08:39:36.642Z,96877.78
2019-05-25T08:41:13.324Z,96871.37
2019-05-25T08:42:52.421Z,96880.81
2019-05-25T08:44:28.368Z,96880.30
2019-05-25T08:46:04.959Z,96873.54
2019-05-25T08:47:41.467Z,96872.12
2019-05-25T08:49:24.069Z,96880.91
2019-05-25T08:51:04.042Z,96880.03
2019-05-25T08:52:41.213Z,96882.16
2019-05-25T08:54:17.523Z,96876.58
2019-05-25T08:55:52.626Z,96876.78
2019-05-25T08:57:28.331Z,96877.39
2019-05-25T08:59:03.474Z,96874.27
2019-05-25T09:00:52.049Z,96875.72
2019-05-25T09:02:31.968Z,96874.31
2019-05-25T09:04:08.952Z,96869.89
2019-05-25T09:05:48.222Z,96876.81
2019-05-25T09:07:29.639Z,96872.93
2019-05-25T09:09:22.034Z,96873.28
2019-05-25T09:11:24.443Z,96872.39
2019-05-25T09:13:32.183Z,96873.92
2019-05-25T09:14:50.773Z,96881.23
2019-05-25T09:16:38.165Z,96887.04
2019-05-25T09:18:13.243Z,96879.80
2019-05-25T09:19:55.901Z,96877.30
2019-05-25T09:21:35.717Z,96879.92
2019-05-25T09:23:13.521Z,96882.83
2019-05-25T09:24:50.321Z,96884.92
2019-05-25T09:26:37.370Z,96886.86
2019-05-25T09:28:14.108Z,96886.05
2019-05-25T09:29:49.694Z,96891.97
2019-05-25T09:31:25.502Z,96892.99
2019-05-25T09:33:02.678Z,96880.83
2019-05-25T09:34:39.801Z,96880.54
2019-05-25T09:36:25.197Z,96877.13
2019-05-25T09:38:05.114Z,96871.62
2019-05-25T09:39:47.295Z,96858.83
2019-05-25T09:41:25.025Z,96862.48
2019-05-25T09:43:02.813Z,96855.84
2019-05-25T09:45:02.754Z,96865.79
2019-05-25T09:46:47.199Z,96859.36
2019-05-25T09:48:40.570Z,96847.62
2019-05-25T09:50:22.583Z,96849.97
2019-05-25T09:52:00.768Z,96848.11
2019-05-25T09:53:38.403Z,96826.45
2019-05-25T09:55:22.159Z,96814.41
2019-05-25T09:57:02.131Z,96829.04
2019-05-25T10:00:27.130Z,96813.46
2019-05-25T10:02:07.652Z,96818.17
2019-05-25T10:03:51.845Z,96806.50
2019-05-25T10:05:30.269Z,96805.54
2019-05-25T10:07:06.772Z,96812.21
2019-05-25T10:08:42.717Z,96797.75
2019-05-25T10:10:23.974Z,96791.95
2019-05-25T10:12:03.568Z,96811.11
2019-05-25T10:13:50.877Z,96818.14
2019-05-25T10:15:29.023Z,96820.70
2019-05-25T10:17:07.134Z,96833.94
2019-05-25T10:18:47.370Z,96825.05
2019-05-25T10:20:22.606Z,96825.58
2019-05-25T10:22:02.953Z,96826.83
2019-05-25T10:23:45.067Z,96821.69
2019-05-25T10:25:22.785Z,96823.84
2019-05-25T10:26:58.663Z,96811.47
2019-05-25T10:28:34.819Z,96833.34
2019-05-25T10:30:19.317Z,96837.79
2019-05-25T10:31:57.482Z,96842.67
2019-05-25T10:33:33.285Z,96842.14
2019-05-25T10:35:17.125Z,96844.91
2019-05-25T10:36:54.443Z,96864.70
2019-05-25T10:38:34.119Z,96853.77
2019-05-25T10:40:10.467Z,96851.69
2019-05-25T10:41:46.091Z,96841.84
2019-05-25T10:43:27.956Z,96853.15
2019-05-25T10:45:07.077Z,96853.09
2019-05-25T10:46:42.978Z,96855.50
2019-05-25T10:48:18.790Z,96854.47
2019-05-25T10:49:55.648Z,96847.75
2019-05-25T10:51:32.353Z,96843.14
2019-05-25T10:53:09.250Z,96847.69
2019-05-25T10:54:47.774Z,96847.69
2019-05-25T10:56:28.092Z,96842.16
2019-05-25T10:58:03.828Z,96830.79
2019-05-25T10:59:52.473Z,96830.87
2019-05-25T11:01:17.345Z,96837.12
2019-05-25T11:02:53.639Z,96845.37
2019-05-25T11:04:30.357Z,96836.41
2019-05-25T11:06:12.207Z,96843.25
2019-05-25T11:07:48.651Z,96832.54
2019-05-25T11:09:28.325Z,96819.69
2019-05-25T11:11:06.436Z,96807.92
2019-05-25T11:12:42.339Z,96817.14
2019-05-25T11:14:18.622Z,96808.64
2019-05-25T11:15:54.061Z,96815.64
2019-05-25T11:17:30.841Z,96803.02
2019-05-25T11:19:07.084Z,96800.50
2019-05-25T11:20:43.923Z,96825.80
2019-05-25T11:22:19.958Z,96829.47
2019-05-25T11:23:58.673Z,96814.15
2019-05-25T11:25:44.218Z,96810.23
2019-05-25T11:27:26.265Z,96808.47
2019-05-25T11:29:14.596Z,96806.45
2019-05-25T11:30:51.541Z,96821.48
2019-05-25T11:32:30.598Z,96821.38
2019-05-25T11:34:10.054Z,96843.80
2019-05-25T11:35:49.595Z,96842.66
2019-05-25T11:37:29.728Z,96883.94
2019-05-25T11:39:07.300Z,96886.80
2019-05-25T11:40:50.282Z,96888.07
2019-05-25T11:42:35.409Z,96877.00
2019-05-25T11:44:11.397Z,96877.61
2019-05-25T11:45:46.530Z,96883.28
2019-05-25T11:47:22.981Z,96879.11
2019-05-25T11:48:58.351Z,96879.52
2019-05-25T11:50:35.445Z,96880.36
2019-05-25T11:52:15.311Z,96877.59
2019-05-25T11:53:51.361Z,96869.91
2019-05-25T11:55:28.546Z,96874.95
2019-05-25T11:57:08.163Z,96873.93
2019-05-25T11:58:47.415Z,96866.84
2019-05-25T12:00:25.385Z,96883.91
2019-05-25T12:02:01.152Z,96879.62
2019-05-25T12:03:37.180Z,96873.05
2019-05-25T12:05:13.697Z,96873.57
2019-05-25T12:06:49.580Z,96871.93
2019-05-25T12:08:33.971Z,96864.84
2019-05-25T12:10:07.560Z,96875.72
2019-05-25T12:11:45.784Z,96863.33
2019-05-25T12:13:21.775Z,96857.98
2019-05-25T12:14:57.269Z,96857.66
2019-05-25T12:16:34.264Z,96869.98
2019-05-25T12:18:12.790Z,96867.05
2019-05-25T12:19:49.216Z,96876.75
2019-05-25T12:21:25.196Z,96874.67
2019-05-25T12:23:01.255Z,96875.56
2019-05-25T12:24:40.436Z,96870.02
2019-05-25T12:26:17.798Z,96865.38
2019-05-25T12:27:53.944Z,96865.38
2019-05-25T12:29:30.093Z,96860.26
2019-05-25T12:31:07.908Z,96859.95
2019-05-25T12:32:44.135Z,96863.30
2019-05-25T12:34:21.281Z,96863.61
2019-05-25T12:35:57.997Z,96860.56
2019-05-25T12:37:34.052Z,96868.27
2019-05-25T12:39:10.056Z,96869.55
2019-05-25T12:40:53.683Z,96872.72
2019-05-25T12:42:25.554Z,96861.19
2019-05-25T12:44:02.439Z,96858.16
2019-05-25T12:45:42.286Z,96856.31
2019-05-25T12:47:21.689Z,96861.32
2019-05-25T12:49:02.721Z,96868.72
2019-05-25T12:50:38.464Z,96878.02
2019-05-25T12:52:14.282Z,96869.77
2019-05-25T12:53:50.564Z,96873.81
2019-05-25T12:55:26.582Z,96875.53
2019-05-25T12:57:02.834Z,96871.73
2019-05-25T12:58:44.780Z,96867.87
2019-05-25T13:00:20.913Z,96868.14
2019-05-25T13:01:58.173Z,96873.94
2019-05-25T13:03:33.384Z,96877.91
2019-05-25T13:05:11.106Z,96874.44
2019-05-25T13:06:46.777Z,96875.59
2019-05-25T13:08:25.600Z,96884.16
2019-05-25T13:10:01.012Z,96882.83
2019-05-25T13:11:39.066Z,96878.66
2019-05-25T13:13:20.181Z,96876.13
2019-05-25T13:14:56.364Z,96878.97
2019-05-25T13:16:32.240Z,96875.20
2019-05-25T13:18:12.801Z,96869.14
2019-05-25T13:19:49.997Z,96868.32
2019-05-25T13:21:26.978Z,96869.39
2019-05-25T13:23:11.084Z,96867.31
2019-05-25T13:24:49.359Z,96869.88
2019-05-25T13:26:32.734Z,96879.61
2019-05-25T13:28:08.700Z,96880.45
2019-05-25T13:29:44.361Z,96879.70
2019-05-25T13:31:25.169Z,96885.34
2019-05-25T13:33:08.562Z,96874.34
2019-05-25T13:34:46.500Z,96890.25
2019-05-25T13:36:23.930Z,96888.16
2019-05-25T13:38:01.984Z,96885.87
2019-05-25T13:39:38.127Z,96881.52
2019-05-25T13:41:19.554Z,96878.77
2019-05-25T13:43:02.199Z,96875.95
2019-05-25T13:44:39.342Z,96878.00
2019-05-25T13:46:14.549Z,96874.95
2019-05-25T13:47:50.606Z,96880.52
2019-05-25T13:49:26.203Z,96886.91
2019-05-25T13:51:02.495Z,96885.95
2019-05-25T13:52:38.283Z,96891.73
2019-05-25T13:54:14.260Z,96890.03
2019-05-25T13:55:50.790Z,96893.47
2019-05-25T13:57:29.011Z,96888.35
2019-05-25T13:59:07.003Z,96880.97
2019-05-25T14:00:45.471Z,96887.33
2019-05-25T14:02:28.714Z,96881.55
2019-05-25T14:04:06.892Z,96880.69
2019-05-25T14:05:42.526Z,96887.70
2019-05-25T14:07:20.609Z,96882.30
2019-05-25T14:09:02.091Z,96880.76
2019-05-25T14:10:38.346Z,96882.90
2019-05-25T14:12:14.135Z,96877.50
2019-05-25T14:13:52.585Z,96881.11
2019-05-25T14:15:30.153Z,96877.25
2019-05-25T14:17:10.928Z,96872.05
2019-05-25T14:18:53.024Z,96876.95
2019-05-25T14:20:31.183Z,96881.59
2019-05-25T14:22:08.843Z,96875.03
2019-05-25T14:23:45.069Z,96882.55
2019-05-25T14:25:20.662Z,96879.63
2019-05-25T14:27:04.082Z,96873.62
2019-05-25T14:28:49.434Z,96873.78
2019-05-25T14:30:30.391Z,96875.41
2019-05-25T14:32:12.294Z,96874.52
2019-05-25T14:33:51.473Z,96878.79
2019-05-25T14:35:28.827Z,96874.52
2019-05-25T14:37:05.891Z,96882.85
2019-05-25T14:38:44.572Z,96882.82
2019-05-25T14:40:23.526Z,96883.66
2019-05-25T14:41:59.208Z,96874.50
2019-05-25T14:43:37.988Z,96868.63
2019-05-25T14:45:17.757Z,96869.50
2019-05-25T14:46:55.514Z,96871.11
2019-05-25T14:48:31.329Z,96870.44
2019-05-25T14:50:06.957Z,96866.23
2019-05-25T14:51:44.741Z,96871.27
2019-05-25T14:53:20.542Z,96867.72
2019-05-25T14:55:06.885Z,96862.88
2019-05-25T14:56:42.105Z,96866.05
2019-05-25T14:58:18.251Z,96859.94
2019-05-25T14:59:53.900Z,96858.81
2019-05-25T15:01:31.897Z,96862.19
2019-05-25T15:03:17.710Z,96872.18
2019-05-25T15:04:53.701Z,96870.72
2019-05-25T15:06:32.696Z,96868.44
2019-05-25T15:08:09.945Z,96870.17
2019-05-25T15:09:50.119Z,96872.72
2019-05-25T15:11:26.285Z,96864.56
2019-05-25T15:13:01.667Z,96859.63
2019-05-25T15:14:43.381Z,96862.83
2019-05-25T15:18:17.888Z,96846.13
2019-05-25T15:19:54.200Z,96855.71
2019-05-25T15:21:30.162Z,96861.67
2019-05-25T15:23:12.906Z,96858.73
2019-05-25T15:24:49.754Z,96858.21
2019-05-25T15:26:24.933Z,96857.09
2019-05-25T15:28:05.188Z,96848.02
2019-05-25T15:29:46.713Z,96843.94
2019-05-25T15:31:27.793Z,96847.38
2019-05-25T15:33:04.965Z,96844.09
2019-05-25T15:34:48.131Z,96852.87
2019-05-25T15:36:26.211Z,96857.31
2019-05-25T15:38:01.527Z,96864.28
2019-05-25T15:39:40.768Z,96866.03
2019-05-25T15:41:16.405Z,96863.75
2019-05-25T15:43:02.357Z,96870.25
2019-05-25T15:44:44.206Z,96869.22
2019-05-25T15:46:23.387Z,96865.28
2019-05-25T15:47:58.557Z,96869.05
2019-05-25T15:49:39.650Z,96865.56
2019-05-25T15:51:17.421Z,96865.48
2019-05-25T15:52:56.824Z,96864.79
2019-05-25T15:54:32.179Z,96863.86
2019-05-25T15:56:09.707Z,96871.44
2019-05-25T15:57:51.142Z,96865.34
2019-05-25T15:59:27.341Z,96865.61
2019-05-25T16:01:07.782Z,96866.91
2019-05-25T16:02:49.224Z,96863.02
2019-05-25T16:04:25.461Z,96863.88
2019-05-25T16:06:05.452Z,96862.28
2019-05-25T16:07:48.802Z,96858.47
2019-05-25T16:09:31.775Z,96862.28
2019-05-25T16:11:07.806Z,96861.78
2019-05-25T16:12:44.068Z,96868.16
2019-05-25T16:14:19.795Z,96860.34
2019-05-25T16:15:58.848Z,96860.88
2019-05-25T16:17:35.906Z,96862.38
2019-05-25T16:19:11.607Z,96863.39
2019-05-25T16:20:48.190Z,96862.00
2019-05-25T16:22:26.060Z,96865.80
2019-05-25T16:24:08.158Z,96862.72
2019-05-25T16:25:44.233Z,96861.37
2019-05-25T16:27:23.099Z,96864.83
2019-05-25T16:29:00.073Z,96851.97
2019-05-25T16:30:35.424Z,96850.49
2019-05-25T16:32:16.145Z,96861.82
2019-05-25T16:34:01.854Z,96854.72
2019-05-25T16:35:37.642Z,96852.89
2019-05-25T16:37:17.601Z,96856.95
2019-05-25T16:38:54.776Z,96855.71
2019-05-25T16:40:31.643Z,96852.77
2019-05-25T16:42:11.090Z,96865.11
2019-05-25T16:43:47.915Z,96857.73
2019-05-25T16:45:28.729Z,96862.56
2019-05-25T16:47:04.131Z,96857.05
2019-05-25T16:48:42.570Z,96855.29
2019-05-25T16:50:23.431Z,96860.20
2019-05-25T16:51:59.922Z,96856.16
2019-05-25T16:53:37.671Z,96850.52
2019-05-25T16:55:14.754Z,96853.27
2019-05-25T16:56:51.236Z,96860.06
2019-05-25T16:58:28.272Z,96853.91
2019-05-25T17:00:08.469Z,96851.17
2019-05-25T17:01:48.093Z,96851.10
2019-05-25T17:03:28.211Z,96846.93
2019-05-25T17:05:06.501Z,96843.55
2019-05-25T17:06:52.709Z,96847.97
2019-05-25T17:08:28.655Z,96845.69
2019-05-25T17:10:07.875Z,96841.09
2019-05-25T17:11:46.113Z,96848.05
2019-05-25T17:13:26.732Z,96845.98
2019-05-25T17:15:03.967Z,96836.00
2019-05-25T17:16:41.830Z,96839.35
2019-05-25T17:18:33.901Z,96837.47
2019-05-25T17:20:07.766Z,96844.23
2019-05-25T17:21:49.475Z,96843.91
2019-05-25T17:23:28.617Z,96849.11
2019-05-25T17:25:03.695Z,96845.16
2019-05-25T17:26:42.008Z,96837.19
2019-05-25T17:28:17.230Z,96839.69
2019-05-25T17:29:56.505Z,96843.89
2019-05-25T17:31:31.760Z,96843.42
2019-05-25T17:33:10.335Z,96852.18
2019-05-25T17:34:45.877Z,96848.58
2019-05-25T17:36:22.344Z,96851.22
2019-05-25T17:38:08.695Z,96847.63
2019-05-25T17:41:01.728Z,96846.08
2019-05-25T17:42:37.567Z,96843.57
2019-05-25T17:44:23.391Z,96841.82
2019-05-25T17:46:01.580Z,96847.55
2019-05-25T17:47:44.193Z,96845.55
2019-05-25T17:49:27.823Z,96845.76
2019-05-25T17:51:03.564Z,96847.31
2019-05-25T17:52:41.796Z,96847.83
2019-05-25T17:54:22.600Z,96852.11
2019-05-25T17:56:02.792Z,96857.97
2019-05-25T17:57:42.989Z,96852.77
2019-05-25T17:59:29.898Z,96849.27
2019-05-25T18:01:11.049Z,96849.86
2019-05-25T18:02:47.489Z,96859.42
2019-05-25T18:04:25.317Z,96866.25
2019-05-25T18:06:00.815Z,96864.68
2019-05-25T18:07:39.115Z,96867.02
2019-05-25T18:09:22.318Z,96863.16
2019-05-25T18:11:02.277Z,96863.58
2019-05-25T18:12:54.163Z,96854.86
2019-05-25T18:14:36.198Z,96858.45
2019-05-25T18:16:20.948Z,96860.73
2019-05-25T18:18:00.782Z,96862.45
2019-05-25T18:19:36.739Z,96869.77
2019-05-25T18:21:16.197Z,96862.19
2019-05-25T18:22:52.653Z,96863.35
2019-05-25T18:24:30.086Z,96870.52
2019-05-25T18:26:08.666Z,96865.91
2019-05-25T18:28:04.033Z,96862.25
2019-05-25T18:29:46.516Z,96858.33
2019-05-25T18:31:31.428Z,96856.05
2019-05-25T18:33:09.625Z,96858.25
2019-05-25T18:34:53.384Z,96867.35
2019-05-25T18:36:39.902Z,96861.50
2019-05-25T18:38:28.843Z,96863.22
2019-05-25T18:40:11.034Z,96868.95
2019-05-25T18:41:49.701Z,96868.87
2019-05-25T18:43:33.054Z,96868.07
2019-05-25T18:45:28.700Z,96864.46
2019-05-25T18:47:14.863Z,96870.67
2019-05-25T18:48:58.389Z,96868.76
2019-05-25T18:50:34.551Z,96873.65
2019-05-25T18:52:18.273Z,96866.42
2019-05-25T18:53:59.207Z,96866.52
2019-05-25T18:55:47.024Z,96875.17
2019-05-25T18:57:23.591Z,96877.42
2019-05-25T18:58:59.702Z,96873.55
2019-05-25T19:00:36.615Z,96872.56
2019-05-25T19:02:12.258Z,96871.38
2019-05-25T19:03:47.409Z,96879.11
2019-05-25T19:05:23.383Z,96878.73
2019-05-25T19:07:00.297Z,96875.91
2019-05-25T19:08:42.608Z,96877.63
2019-05-25T19:10:18.273Z,96875.66
2019-05-25T19:11:56.536Z,96874.18
2019-05-25T19:13:38.732Z,96867.82
2019-05-25T19:15:15.410Z,96867.96
2019-05-25T19:16:54.317Z,96869.12
2019-05-25T19:18:29.378Z,96874.95